»·PEaware :: SWA2363 KSNA-KLAS

SWA2363 :: KSNA-KLAS

FLIGHT INFORMATION

Flight Status: Arrived
Operator:
Southwest Airlines
More flights by this operator :: More flights under this callsign
Pilot: Cody B. (17747)
Aircraft: BOEING 737-800
(B738)
More flights by this aircraft type
Origin: KSNA John Wayne-Orange Co
United States
Destination: KLAS McCarran Intl
United States
More flights between these airports :: More routes between these airports
Route: FINZZ2 MISEN KEPEC6
File this flight plan on PilotEdge
Remarks: PBN / A1B1C1D1S1S2 DOF / 180810 REG / N8301J CODE / AB5ADE OPR / SWA PER / C RMK / TCAS SIMBRIEF
Altitude:
(Current/Filed)
29,000ft
Speed:
(Current/Filed)
459kts
Departed: 10-Aug-18 09:02 AM
Arrived: 10-Aug-18 09:50 AM
Distance/Time
Traveled:
197nm/0:48
Distance/Time
To Go:
Arrived

Flight Plot

Page will automatically refresh every two minutes.

Flight plan parsing failed; only flown route is shown


Map Options




Map Legend


Flown Route
Filed Route
Departure Airport
Arrival Airport
Navaid (VOR, NDB)
Fix

Horizontal Profiles

Position Reports

Time Latitude Longitude Heading Altitude Ground
Speed
10-Aug-18 08:07 33.675717 -117.864668 117 64ft 0kts
10-Aug-18 08:08 33.675717 -117.864668 117 64ft 0kts
10-Aug-18 08:09 33.675717 -117.864668 117 64ft 0kts
10-Aug-18 08:10 33.675717 -117.864668 117 64ft 0kts
10-Aug-18 08:11 33.675717 -117.864668 117 64ft 0kts
10-Aug-18 08:12 33.675717 -117.864668 117 64ft 0kts
10-Aug-18 08:13 33.675717 -117.864668 117 64ft 0kts
10-Aug-18 08:14 33.675717 -117.864668 117 64ft 0kts
10-Aug-18 08:15 33.675717 -117.864668 117 64ft 0kts
10-Aug-18 08:16 33.675717 -117.864668 117 64ft 0kts
10-Aug-18 08:17 33.675717 -117.864668 117 64ft 0kts
10-Aug-18 08:18 33.675717 -117.864668 117 64ft 0kts
10-Aug-18 08:19 33.675717 -117.864668 117 64ft 0kts
10-Aug-18 08:20 33.675717 -117.864668 117 64ft 0kts
10-Aug-18 08:21 33.675717 -117.864668 117 64ft 0kts
10-Aug-18 08:22 33.675717 -117.864668 117 64ft 0kts
10-Aug-18 08:23 33.675717 -117.864668 117 64ft 0kts
10-Aug-18 08:24 33.675717 -117.864668 117 64ft 0kts
10-Aug-18 08:25 33.675717 -117.864668 117 64ft 0kts
10-Aug-18 08:26 33.675717 -117.864668 117 64ft 0kts
10-Aug-18 08:27 33.675717 -117.864668 117 64ft 0kts
10-Aug-18 08:28 33.675717 -117.864668 117 64ft 0kts
10-Aug-18 08:29 33.675717 -117.864668 117 64ft 0kts
10-Aug-18 08:30 33.675717 -117.864668 117 64ft 0kts
10-Aug-18 08:31 33.675717 -117.864668 117 64ft 0kts
10-Aug-18 08:32 33.675717 -117.864668 117 64ft 0kts
10-Aug-18 08:33 33.675717 -117.864668 117 64ft 0kts
10-Aug-18 08:34 33.675717 -117.864668 117 64ft 0kts
10-Aug-18 08:35 33.675717 -117.864668 117 64ft 0kts
10-Aug-18 08:36 33.675717 -117.864668 117 64ft 0kts
10-Aug-18 08:37 33.675717 -117.864668 117 64ft 0kts
10-Aug-18 08:38 33.675717 -117.864668 117 64ft 0kts
10-Aug-18 08:39 33.675717 -117.864668 117 64ft 0kts
10-Aug-18 08:40 33.675717 -117.864668 117 64ft 0kts
10-Aug-18 08:41 33.675717 -117.864668 117 64ft 0kts
10-Aug-18 08:42 33.675717 -117.864668 117 64ft 0kts
10-Aug-18 08:43 33.675717 -117.864668 117 64ft 0kts
10-Aug-18 08:44 33.675717 -117.864668 117 64ft 0kts
10-Aug-18 08:45 33.675717 -117.864668 117 64ft 0kts
10-Aug-18 08:46 33.675717 -117.864668 117 64ft 0kts
10-Aug-18 08:47 33.675717 -117.864668 117 64ft 0kts
10-Aug-18 08:48 33.675717 -117.864668 117 64ft 0kts
10-Aug-18 08:49 33.675717 -117.864668 117 64ft 0kts
10-Aug-18 08:50 33.675717 -117.864668 117 64ft 0kts
10-Aug-18 08:51 33.675717 -117.864668 117 64ft 0kts
10-Aug-18 08:52 33.675890 -117.865207 77 64ft 2kts
10-Aug-18 08:53 33.675697 -117.865478 27 64ft 0kts
10-Aug-18 08:54 33.675697 -117.865478 27 64ft 0kts
10-Aug-18 08:55 33.675697 -117.865478 27 64ft 0kts
10-Aug-18 08:56 33.675836 -117.865392 27 64ft 2kts
10-Aug-18 08:57 33.677097 -117.864603 27 64ft 7kts
10-Aug-18 08:58 33.679212 -117.863255 27 64ft 9kts
10-Aug-18 08:59 33.680721 -117.863287 298 64ft 4kts
10-Aug-18 09:00 33.681133 -117.864189 298 64ft 0kts
10-Aug-18 09:01 33.681231 -117.864402 298 64ft 4kts
10-Aug-18 09:02 33.681416 -117.865204 207 64ft 0kts
10-Aug-18 09:03 33.658080 -117.880218 209 962ft 151kts
10-Aug-18 09:04 33.601917 -117.898642 183 2476ft 265kts
10-Aug-18 09:05 33.535993 -117.936593 223 5772ft 284kts
10-Aug-18 09:06 33.500082 -118.016444 285 8776ft 299kts
10-Aug-18 09:07 33.566069 -118.042852 23 11006ft 311kts
10-Aug-18 09:09 33.729118 -117.960766 25 16272ft 333kts
10-Aug-18 09:10 33.814156 -117.917582 26 18553ft 344kts
10-Aug-18 09:11 33.902947 -117.872317 25 20489ft 360kts
10-Aug-18 09:12 33.996552 -117.824528 24 22316ft 374kts
10-Aug-18 09:13 34.091305 -117.769998 40 24008ft 385kts
10-Aug-18 09:14 34.160186 -117.674167 50 25714ft 391kts
10-Aug-18 09:15 34.229036 -117.571346 50 27232ft 400kts
10-Aug-18 09:16 34.299315 -117.466341 49 28585ft 409kts
10-Aug-18 09:17 34.371685 -117.358042 49 29157ft 428kts
10-Aug-18 09:18 34.448328 -117.242998 50 29173ft 455kts
10-Aug-18 09:19 34.528466 -117.122288 50 29164ft 461kts
10-Aug-18 09:20 34.609997 -117.002465 49 29108ft 461kts
10-Aug-18 09:21 34.678105 -116.903056 49 29104ft 461kts
10-Aug-18 09:22 34.773522 -116.763328 49 29105ft 460kts
10-Aug-18 09:23 34.855353 -116.644170 45 29103ft 459kts
10-Aug-18 09:24 34.935815 -116.563961 38 28181ft 436kts
10-Aug-18 09:25 35.028350 -116.474781 39 25764ft 415kts
10-Aug-18 09:26 35.126703 -116.374035 45 23794ft 384kts
10-Aug-18 09:27 35.188606 -116.296602 47 22980ft 386kts
10-Aug-18 09:28 35.262633 -116.203625 47 21986ft 378kts
10-Aug-18 09:29 35.334690 -116.112898 47 20794ft 370kts
10-Aug-18 09:30 35.404455 -116.024816 47 19167ft 355kts
10-Aug-18 09:31 35.472132 -115.939121 47 17560ft 345kts
10-Aug-18 09:32 35.538207 -115.855250 46 16425ft 342kts
10-Aug-18 09:33 35.603815 -115.771790 46 15228ft 341kts
10-Aug-18 09:34 35.667224 -115.690929 46 13298ft 312kts
10-Aug-18 09:35 35.724419 -115.617840 45 13034ft 294kts
10-Aug-18 09:36 35.794412 -115.572388 4 13044ft 297kts
10-Aug-18 09:37 35.876925 -115.567833 3 13035ft 298kts
10-Aug-18 09:38 35.937948 -115.515316 69 11957ft 298kts
10-Aug-18 09:39 35.963145 -115.418711 71 11000ft 290kts
10-Aug-18 09:40 35.987040 -115.326102 73 10999ft 280kts
10-Aug-18 09:41 35.987150 -115.231358 91 10016ft 275kts
10-Aug-18 09:42 35.983377 -115.138601 91 8743ft 262kts
10-Aug-18 09:43 35.979423 -115.053148 91 8036ft 242kts
10-Aug-18 09:44 35.975531 -114.970134 91 7588ft 241kts
10-Aug-18 09:45 35.975711 -114.888354 60 6372ft 239kts
10-Aug-18 09:46 36.037256 -114.871767 1 5322ft 235kts
10-Aug-18 09:47 36.073593 -114.925480 278 4996ft 228kts
10-Aug-18 09:48 36.074060 -114.996447 266 4253ft 189kts
10-Aug-18 09:49 36.073828 -115.055194 272 3369ft 164kts
10-Aug-18 09:50 36.073598 -115.111361 269 2506ft 165kts
10-Aug-18 09:51 36.073627 -115.149855 269 2149ft 31kts
10-Aug-18 09:52 36.074787 -115.155349 301 2149ft 2kts
10-Aug-18 09:53 36.074983 -115.155705 305 2149ft 4kts
10-Aug-18 09:54 36.076497 -115.157554 311 2149ft 10kts
10-Aug-18 09:55 36.077398 -115.158211 355 2149ft 0kts
10-Aug-18 09:56 36.078698 -115.158236 0 2149ft 11kts
10-Aug-18 09:57 36.081608 -115.157584 84 2149ft 8kts
10-Aug-18 09:58 36.081421 -115.153598 103 2149ft 11kts
10-Aug-18 09:59 36.081419 -115.150724 46 2149ft 7kts
10-Aug-18 10:00 36.081686 -115.148905 153 2149ft 8kts
10-Aug-18 10:01 36.079724 -115.147634 86 2149ft 1kts
10-Aug-18 10:02 36.079923 -115.147117 57 2149ft 0kts
10-Aug-18 10:03 36.079923 -115.147117 57 2149ft 0kts
10-Aug-18 10:04 36.079923 -115.147117 57 2149ft 0kts
10-Aug-18 10:05 36.079923 -115.147117 57 2149ft 0kts
10-Aug-18 10:06 36.079923 -115.147117 57 2149ft 0kts

Navigation Log

Ident Type
Flight plan parsing failed, navigation log unavailable